Time;durP1;ratioP1;P1;durP2;ratioP2;P2;SDS_P1;SDS_P2;PMS_P1;PMS_P2;Temp;Humidity;BMP_temperature;BMP_pressure;BME280_temperature;BME280_humidity;BME280_pressure;Samples;Min_cycle;Max_cycle;Signal;HPM_P1;HPM_P2
2022/11/08 00:01:40;;;;;;;4.97;2.30;;;15.80;80.30;;;;;;5044209;28;20025;-78
2022/11/08 00:04:12;;;;;;;8.80;2.85;;;15.80;80.30;;;;;;5044916;28;20093;-79
2022/11/08 00:14:52;;;;;;;6.93;2.30;;;15.80;80.40;;;;;;5048791;28;20120;-78
2022/11/08 00:17:20;;;;;;;6.90;2.75;;;15.80;80.40;;;;;;5042103;28;20121;-79
2022/11/08 00:19:46;;;;;;;4.20;2.22;;;15.70;80.20;;;;;;5042772;28;20096;-79
2022/11/08 00:22:13;;;;;;;6.13;2.65;;;15.70;80.20;;;;;;5046481;28;20167;-79
2022/11/08 00:24:39;;;;;;;5.10;2.33;;;15.70;80.20;;;;;;5045227;28;20033;-79
2022/11/08 00:27:08;;;;;;;6.95;2.78;;;15.70;80.20;;;;;;5045300;28;20102;-79
2022/11/08 00:29:35;;;;;;;5.05;2.03;;;15.70;80.30;;;;;;5043231;28;20095;-79
2022/11/08 00:32:06;;;;;;;5.35;2.15;;;15.70;80.30;;;;;;5043893;28;20047;-79
2022/11/08 00:34:32;;;;;;;3.63;1.65;;;15.60;80.10;;;;;;5047856;28;20377;-79
2022/11/08 00:36:59;;;;;;;6.55;2.40;;;15.60;80.20;;;;;;5061741;28;20033;-79
2022/11/08 00:39:25;;;;;;;3.63;1.70;;;15.60;80.20;;;;;;5043748;28;20048;-79
2022/11/08 00:41:51;;;;;;;7.18;2.83;;;15.50;80.00;;;;;;5043595;28;20500;-78
2022/11/08 00:44:16;;;;;;;4.97;2.08;;;15.50;80.00;;;;;;5044900;28;20056;-78
2022/11/08 00:46:42;;;;;;;4.68;2.05;;;15.50;80.10;;;;;;5026168;28;20045;-78
2022/11/08 00:49:09;;;;;;;4.05;1.88;;;15.50;80.10;;;;;;5044442;28;20025;-81
2022/11/08 00:51:36;;;;;;;4.97;1.58;;;15.40;79.90;;;;;;5030917;28;20029;-80
2022/11/08 00:54:03;;;;;;;2.50;1.50;;;15.40;79.90;;;;;;5043914;28;20017;-79
2022/11/08 00:56:29;;;;;;;2.88;1.30;;;15.40;79.90;;;;;;5043850;28;20044;-79
2022/11/08 00:58:54;;;;;;;5.63;2.15;;;15.30;79.80;;;;;;5044268;28;20037;-81
2022/11/08 01:01:21;;;;;;;5.63;1.70;;;15.30;79.80;;;;;;5045598;28;20025;-81
2022/11/08 01:03:48;;;;;;;5.75;1.75;;;15.30;79.80;;;;;;5048589;28;20040;-81
2022/11/08 01:06:16;;;;;;;3.33;1.38;;;15.20;79.60;;;;;;5051691;28;20029;-81
2022/11/08 01:08:42;;;;;;;3.35;1.42;;;15.20;79.60;;;;;;5053286;28;20507;-80
2022/11/08 01:11:12;;;;;;;5.22;1.50;;;15.20;79.60;;;;;;5050830;28;20021;-80
2022/11/08 01:13:39;;;;;;;5.00;1.23;;;15.20;79.60;;;;;;5049502;28;20040;-81
2022/11/08 01:16:11;;;;;;;3.90;1.45;;;15.10;79.50;;;;;;5050304;28;20717;-79
2022/11/08 01:18:37;;;;;;;4.93;1.50;;;15.10;79.50;;;;;;5052508;28;20053;-79
2022/11/08 01:21:04;;;;;;;3.58;1.20;;;15.00;79.30;;;;;;5051585;28;20031;-80
2022/11/08 01:23:31;;;;;;;2.95;1.00;;;15.00;79.30;;;;;;5048939;28;20031;-79
2022/11/08 01:26:03;;;;;;;1.55;0.80;;;14.90;79.10;;;;;;5049703;28;20480;-80
2022/11/08 01:28:29;;;;;;;3.67;1.30;;;14.90;79.10;;;;;;5050788;28;20450;-80
2022/11/08 01:30:55;;;;;;;3.25;1.10;;;14.90;79.10;;;;;;5050685;28;20017;-81
2022/11/08 01:33:20;;;;;;;4.15;1.35;;;14.80;79.00;;;;;;5032152;28;20506;-81
2022/11/08 01:35:46;;;;;;;2.50;1.20;;;14.80;79.00;;;;;;5044753;28;20103;-81
2022/11/08 01:38:12;;;;;;;2.33;1.02;;;14.80;79.00;;;;;;5042910;28;20119;-79
2022/11/08 01:40:47;;;;;;;4.97;1.40;;;14.70;78.80;;;;;;5050732;28;20542;-79
2022/11/08 01:43:25;;;;;;;1.60;0.88;;;14.70;78.90;;;;;;5041145;28;20032;-79
2022/11/08 01:46:26;;;;;;;2.40;1.20;;;14.70;78.90;;;;;;5018937;28;20045;-80
2022/11/08 01:49:02;;;;;;;1.85;0.80;;;14.60;78.70;;;;;;5040281;28;20046;-80
2022/11/08 01:51:35;;;;;;;3.15;0.82;;;14.60;78.70;;;;;;5043673;28;20685;-82
2022/11/08 01:54:07;;;;;;;3.17;1.88;;;14.50;78.60;;;;;;5055103;28;20032;-81
2022/11/08 01:56:34;;;;;;;5.27;1.57;;;14.50;78.70;;;;;;5044887;28;20492;-79
2022/11/08 01:59:02;;;;;;;3.08;0.80;;;14.50;78.70;;;;;;5059227;28;20045;-79
2022/11/08 02:01:28;;;;;;;3.05;0.85;;;14.40;78.50;;;;;;5049175;28;20057;-79
2022/11/08 02:03:54;;;;;;;2.28;0.95;;;14.40;78.50;;;;;;5046805;28;20024;-79
2022/11/08 02:06:20;;;;;;;3.13;0.88;;;14.40;78.60;;;;;;5045707;28;20021;-78
2022/11/08 02:08:46;;;;;;;1.40;0.68;;;14.30;78.40;;;;;;5045256;28;20157;-78
2022/11/08 02:11:15;;;;;;;1.90;0.73;;;14.30;78.50;;;;;;5044719;28;20033;-79
2022/11/08 02:13:41;;;;;;;1.55;0.85;;;14.30;78.50;;;;;;5041079;28;20510;-78
2022/11/08 02:16:12;;;;;;;2.80;1.05;;;14.30;78.50;;;;;;5042910;28;20055;-80
2022/11/08 02:18:38;;;;;;;1.90;0.90;;;14.20;78.30;;;;;;5046581;28;20097;-80
2022/11/08 02:21:22;;;;;;;1.60;1.00;;;14.20;78.30;;;;;;5043629;28;20033;-78
2022/11/08 02:23:50;;;;;;;1.88;0.60;;;14.20;78.40;;;;;;5045812;28;20446;-78
2022/11/08 02:26:19;;;;;;;1.67;0.82;;;14.20;78.30;;;;;;5035315;28;20462;-78
2022/11/08 02:28:47;;;;;;;1.95;0.63;;;14.20;78.30;;;;;;5039971;28;20041;-79
2022/11/08 02:31:15;;;;;;;2.15;0.50;;;14.20;78.30;;;;;;5029648;28;20017;-78
2022/11/08 02:33:42;;;;;;;1.02;0.60;;;14.10;78.20;;;;;;5044164;28;20373;-78
2022/11/08 02:36:11;;;;;;;1.00;0.63;;;14.10;78.20;;;;;;5038546;28;20469;-78
2022/11/08 02:38:41;;;;;;;1.00;0.60;;;14.10;78.20;;;;;;5042760;28;20048;-78
2022/11/08 02:41:07;;;;;;;1.88;0.80;;;14.00;78.00;;;;;;5043165;28;20029;-79
2022/11/08 02:43:33;;;;;;;1.80;0.60;;;14.00;78.00;;;;;;5044881;28;20027;-78
2022/11/08 02:46:00;;;;;;;1.20;0.57;;;14.00;78.00;;;;;;5044829;28;20049;-78
2022/11/08 02:48:26;;;;;;;2.50;0.47;;;14.00;78.10;;;;;;5030615;28;20482;-79
2022/11/08 02:50:52;;;;;;;4.32;0.80;;;13.90;77.90;;;;;;5030743;28;20033;-79
2022/11/08 02:53:18;;;;;;;1.17;0.50;;;13.90;78.00;;;;;;5049535;28;20040;-78
2022/11/08 02:55:44;;;;;;;1.08;0.40;;;13.80;77.90;;;;;;5026289;28;20116;-78
2022/11/08 02:58:11;;;;;;;1.75;0.65;;;13.80;77.90;;;;;;5028708;28;20096;-78
2022/11/08 03:00:37;;;;;;;3.72;0.80;;;13.70;77.80;;;;;;5028971;28;20091;-78
2022/11/08 03:03:03;;;;;;;2.13;0.88;;;13.70;77.80;;;;;;5027452;28;20029;-79
2022/11/08 03:05:30;;;;;;;1.98;0.57;;;13.60;77.60;;;;;;5041829;28;20487;-78
2022/11/08 03:07:56;;;;;;;1.67;0.80;;;13.60;77.70;;;;;;5047548;28;20051;-78
2022/11/08 03:10:25;;;;;;;3.33;0.95;;;13.60;77.80;;;;;;5027874;28;20419;-77
2022/11/08 03:12:59;;;;;;;3.90;0.82;;;13.60;77.80;;;;;;5028709;28;20087;-77
2022/11/08 03:15:25;;;;;;;2.97;0.95;;;13.60;77.80;;;;;;5029096;28;20485;-78
2022/11/08 03:17:51;;;;;;;3.25;1.00;;;13.50;77.70;;;;;;5043529;28;20029;-79
2022/11/08 03:20:17;;;;;;;2.10;0.90;;;13.50;77.70;;;;;;5030516;28;20250;-80
2022/11/08 03:22:44;;;;;;;1.85;0.70;;;13.50;77.80;;;;;;5047599;28;20025;-79
2022/11/08 03:25:10;;;;;;;2.78;0.73;;;13.40;77.70;;;;;;5046132;28;20039;-78
2022/11/08 03:27:36;;;;;;;2.35;0.70;;;13.40;77.80;;;;;;5046552;28;20029;-79
2022/11/08 03:30:03;;;;;;;3.00;1.20;;;13.40;77.80;;;;;;5047703;28;20722;-79
2022/11/08 03:32:28;;;;;;;1.77;0.80;;;13.40;77.90;;;;;;5047389;28;20664;-79
2022/11/08 03:34:54;;;;;;;2.35;0.70;;;13.30;77.70;;;;;;5029298;28;20033;-79
2022/11/08 03:37:21;;;;;;;4.72;1.65;;;13.30;77.80;;;;;;5029343;28;20126;-78
2022/11/08 03:39:47;;;;;;;3.40;0.70;;;13.30;77.80;;;;;;5043686;28;20026;-78
2022/11/08 03:42:13;;;;;;;5.45;1.20;;;13.30;77.80;;;;;;5047779;28;20033;-79
2022/11/08 03:44:39;;;;;;;3.20;0.82;;;13.30;77.80;;;;;;5031013;28;20504;-79
2022/11/08 03:47:05;;;;;;;3.25;1.17;;;13.30;77.80;;;;;;5047425;28;20049;-79
2022/11/08 03:49:31;;;;;;;3.83;1.17;;;13.30;77.90;;;;;;5048070;28;20029;-79
2022/11/08 03:51:57;;;;;;;5.95;1.10;;;13.20;77.80;;;;;;5050319;28;20028;-79
2022/11/08 03:54:23;;;;;;;5.90;1.20;;;13.30;78.00;;;;;;5047453;28;20045;-79
2022/11/08 03:56:49;;;;;;;2.65;1.20;;;13.20;77.90;;;;;;5049346;28;20498;-79
2022/11/08 03:59:15;;;;;;;6.72;1.25;;;13.20;77.90;;;;;;5032107;28;20429;-80
2022/11/08 04:01:41;;;;;;;5.03;1.30;;;13.30;78.10;;;;;;5030007;28;20030;-79
2022/11/08 04:04:07;;;;;;;9.07;1.77;;;13.30;78.10;;;;;;5030086;28;20068;-80
2022/11/08 04:06:33;;;;;;;6.93;1.33;;;13.30;78.10;;;;;;5030614;28;20037;-79
2022/11/08 04:08:59;;;;;;;8.23;2.22;;;13.30;78.10;;;;;;5018165;28;20049;-80
2022/11/08 04:16:54;;;;;;;8.55;1.88;;;13.30;78.10;;;;;;5032014;28;20083;-79
2022/11/08 04:22:06;;;;;;;7.90;1.50;;;13.20;77.90;;;;;;5030007;28;20420;-79
2022/11/08 04:24:32;;;;;;;13.15;3.25;;;13.20;77.90;;;;;;5030562;28;20037;-82
2022/11/08 04:26:58;;;;;;;7.95;2.60;;;13.20;77.90;;;;;;5050732;28;20017;-79
2022/11/08 04:29:24;;;;;;;5.35;1.48;;;13.20;78.00;;;;;;5051492;28;20021;-79
2022/11/08 04:31:50;;;;;;;5.60;1.90;;;13.20;78.00;;;;;;5049991;28;20047;-80
2022/11/08 04:34:16;;;;;;;6.85;1.40;;;13.20;78.00;;;;;;5048756;28;20125;-79
2022/11/08 04:36:42;;;;;;;9.32;2.00;;;13.20;78.10;;;;;;5049583;28;20048;-80
2022/11/08 04:39:07;;;;;;;12.05;2.40;;;13.20;78.10;;;;;;5048813;28;20037;-79
2022/11/08 04:41:33;;;;;;;9.43;2.17;;;13.20;78.10;;;;;;5051063;28;20116;-79
2022/11/08 04:43:59;;;;;;;8.75;2.00;;;13.10;77.90;;;;;;5035356;28;20067;-80
2022/11/08 04:46:26;;;;;;;9.63;2.40;;;13.20;78.20;;;;;;5036472;28;20367;-79
2022/11/08 04:48:55;;;;;;;9.63;1.95;;;13.10;78.00;;;;;;5052329;28;20033;-80
2022/11/08 04:51:27;;;;;;;7.22;1.85;;;13.10;78.00;;;;;;5055743;28;20055;-79
2022/11/08 04:53:58;;;;;;;9.17;2.70;;;13.10;78.00;;;;;;5055252;28;20025;-79
2022/11/08 04:56:25;;;;;;;7.80;1.73;;;13.10;78.00;;;;;;5053199;28;20032;-79
2022/11/08 04:58:53;;;;;;;6.30;1.63;;;13.10;78.10;;;;;;5055260;28;20711;-79
2022/11/08 05:01:21;;;;;;;10.05;2.67;;;13.00;77.90;;;;;;5055800;28;20377;-79
2022/11/08 05:03:49;;;;;;;8.55;2.08;;;13.00;78.00;;;;;;5049453;28;20499;-79
2022/11/08 05:06:27;;;;;;;9.38;2.17;;;13.00;78.00;;;;;;5033347;28;20030;-78
2022/11/08 05:08:55;;;;;;;7.32;1.52;;;13.00;78.00;;;;;;5045293;28;20511;-78
2022/11/08 05:11:23;;;;;;;5.78;1.77;;;12.90;77.90;;;;;;5052598;28;20813;-79
2022/11/08 05:13:50;;;;;;;14.18;2.55;;;12.90;78.00;;;;;;5038909;28;20037;-80
2022/11/08 05:16:21;;;;;;;7.38;2.55;;;12.90;78.00;;;;;;5036998;28;20026;-80
2022/11/08 05:18:47;;;;;;;8.70;2.20;;;12.90;78.10;;;;;;5052924;28;20040;-79
2022/11/08 05:24:02;;;;;;;5.00;1.77;;;12.90;78.20;;;;;;5033669;28;20018;-79
2022/11/08 05:26:29;;;;;;;9.80;2.83;;;12.90;78.20;;;;;;5034847;28;20014;-80
2022/11/08 05:28:55;;;;;;;11.32;2.22;;;12.80;78.00;;;;;;5031897;28;20029;-79
2022/11/08 05:31:20;;;;;;;5.25;1.83;;;12.90;78.30;;;;;;5031803;28;20033;-79
2022/11/08 05:33:47;;;;;;;7.07;2.10;;;12.80;78.10;;;;;;5042217;28;20465;-79
2022/11/08 05:36:14;;;;;;;9.30;3.45;;;12.80;78.20;;;;;;5054168;28;20041;-79
2022/11/08 05:38:41;;;;;;;7.15;2.45;;;12.80;78.20;;;;;;5051561;28;20067;-79
2022/11/08 05:41:16;;;;;;;7.72;2.20;;;12.80;78.20;;;;;;5052999;28;20029;-78
2022/11/08 05:43:44;;;;;;;5.50;2.70;;;12.80;78.30;;;;;;5054026;28;20037;-79
2022/11/08 05:46:10;;;;;;;6.03;2.28;;;12.90;78.40;;;;;;5052641;28;20041;-79
2022/11/08 05:48:36;;;;;;;10.57;2.17;;;12.90;78.40;;;;;;5048591;28;20041;-81
2022/11/08 05:51:03;;;;;;;8.48;2.40;;;12.80;78.30;;;;;;5049633;28;20048;-79
2022/11/08 05:53:30;;;;;;;11.07;3.25;;;12.80;78.30;;;;;;5051087;28;20036;-80
2022/11/08 05:56:01;;;;;;;8.90;1.73;;;12.80;78.30;;;;;;5049508;28;20033;-80
2022/11/08 05:58:28;;;;;;;5.53;1.80;;;12.80;78.40;;;;;;5040749;28;20388;-79
2022/11/08 06:01:08;;;;;;;11.55;2.20;;;12.80;78.40;;;;;;5047121;28;20033;-78
2022/11/08 06:03:34;;;;;;;11.02;2.10;;;12.80;78.50;;;;;;5045496;28;20483;-79
2022/11/08 06:06:02;;;;;;;7.22;2.72;;;12.80;78.40;;;;;;5044545;28;20057;-78
2022/11/08 06:08:28;;;;;;;10.32;2.55;;;12.80;78.40;;;;;;5046183;28;20021;-79
2022/11/08 06:10:54;;;;;;;8.55;2.08;;;12.80;78.50;;;;;;5030409;28;20444;-80
2022/11/08 06:13:19;;;;;;;13.55;2.85;;;12.80;78.50;;;;;;5044837;28;20029;-79
2022/11/08 06:15:45;;;;;;;9.15;2.15;;;12.90;78.70;;;;;;5049352;28;20455;-81
2022/11/08 06:18:11;;;;;;;9.80;2.45;;;12.90;78.70;;;;;;5044888;28;20277;-80
2022/11/08 06:20:37;;;;;;;6.78;2.10;;;12.90;78.70;;;;;;5047021;28;20063;-80
2022/11/08 06:23:03;;;;;;;8.85;2.90;;;12.90;78.70;;;;;;5046058;28;20040;-79
2022/11/08 06:25:29;;;;;;;10.57;2.72;;;12.90;78.70;;;;;;5048253;28;20021;-79
2022/11/08 06:27:57;;;;;;;8.45;2.72;;;12.90;78.70;;;;;;5047919;28;20049;-79
2022/11/08 06:30:23;;;;;;;8.00;2.67;;;12.90;78.70;;;;;;5044410;28;20111;-79
2022/11/08 06:32:49;;;;;;;12.30;3.05;;;12.90;78.70;;;;;;5048880;28;20041;-81
2022/11/08 06:35:15;;;;;;;10.10;1.80;;;13.00;78.90;;;;;;5032634;28;20033;-83
2022/11/08 06:37:43;;;;;;;13.93;2.70;;;13.00;78.90;;;;;;5053529;28;20047;-84
2022/11/08 06:40:09;;;;;;;8.15;2.72;;;13.00;78.90;;;;;;5060664;28;20282;-81
2022/11/08 06:42:35;;;;;;;12.27;2.35;;;13.00;78.90;;;;;;5052070;28;20089;-85
2022/11/08 06:45:01;;;;;;;12.30;2.70;;;13.00;78.90;;;;;;5056258;28;20086;-90
2022/11/08 06:47:27;;;;;;;10.05;2.65;;;13.10;79.10;;;;;;5053506;28;20401;-83
2022/11/08 06:49:52;;;;;;;10.60;2.55;;;13.10;79.00;;;;;;5073173;28;20112;-80
2022/11/08 06:52:18;;;;;;;10.70;2.40;;;13.10;79.00;;;;;;5073094;28;20247;-82
2022/11/08 06:54:44;;;;;;;16.13;2.88;;;13.10;79.00;;;;;;5070194;28;20051;-83
2022/11/08 06:57:10;;;;;;;13.05;2.60;;;13.10;79.00;;;;;;5063566;28;20021;-77
2022/11/08 06:59:36;;;;;;;12.57;2.85;;;13.10;79.00;;;;;;5052965;28;20472;-77
2022/11/08 07:02:02;;;;;;;11.45;3.20;;;13.10;79.00;;;;;;5048448;28;20475;-76
2022/11/08 07:04:27;;;;;;;14.10;3.10;;;13.20;79.50;;;;;;5040959;28;20037;-76
2022/11/08 07:06:54;;;;;;;14.20;4.00;;;13.30;79.80;;;;;;5046141;28;20040;-79
2022/11/08 07:09:20;;;;;;;16.90;3.90;;;13.30;80.00;;;;;;5045151;28;20487;-82
2022/11/08 07:11:46;;;;;;;18.08;4.47;;;13.30;80.20;;;;;;5032615;28;20041;-78
2022/11/08 07:14:12;;;;;;;15.48;4.30;;;13.40;80.50;;;;;;5030764;28;20029;-81
2022/11/08 07:16:38;;;;;;;15.73;4.45;;;13.40;80.70;;;;;;5041481;28;20036;-83
2022/11/08 07:19:04;;;;;;;20.45;5.35;;;13.40;80.90;;;;;;5035916;28;20037;-79
2022/11/08 07:21:29;;;;;;;23.02;5.15;;;13.50;81.30;;;;;;5044747;28;20051;-76
2022/11/08 07:23:55;;;;;;;17.80;3.88;;;13.50;81.40;;;;;;5044250;28;20032;-77
2022/11/08 07:26:21;;;;;;;21.70;4.72;;;13.50;81.60;;;;;;5042896;28;20036;-78
2022/11/08 07:28:47;;;;;;;19.08;4.00;;;13.50;81.70;;;;;;5024366;28;20443;-80
2022/11/08 07:31:13;;;;;;;18.95;3.67;;;13.50;81.80;;;;;;5023410;28;20025;-85
2022/11/08 07:33:39;;;;;;;18.35;6.38;;;13.60;82.20;;;;;;5046506;28;20060;-83
2022/11/08 07:36:05;;;;;;;15.68;4.22;;;13.60;82.30;;;;;;5044959;28;20468;-82
2022/11/08 07:38:31;;;;;;;17.00;3.58;;;13.70;82.70;;;;;;5026867;28;20110;-79
2022/11/08 07:40:58;;;;;;;16.98;3.92;;;13.70;82.80;;;;;;5022498;28;20431;-82
2022/11/08 07:43:26;;;;;;;13.55;3.08;;;13.90;83.40;;;;;;5038858;28;20076;-80
2022/11/08 07:45:56;;;;;;;15.10;3.03;;;14.00;83.80;;;;;;5042036;28;20030;-79
2022/11/08 07:48:22;;;;;;;16.20;3.15;;;14.10;84.00;;;;;;5031333;28;20044;-78
2022/11/08 07:50:49;;;;;;;17.88;4.05;;;14.20;84.20;;;;;;5045082;28;20025;-77
2022/11/08 07:53:15;;;;;;;17.77;3.38;;;14.30;84.40;;;;;;5029354;28;20329;-76
2022/11/08 07:55:41;;;;;;;10.63;3.35;;;14.40;84.50;;;;;;5038437;28;20028;-77
2022/11/08 07:58:09;;;;;;;14.23;3.83;;;14.50;84.60;;;;;;5046265;28;20036;-76
2022/11/08 08:00:37;;;;;;;15.57;3.45;;;14.60;84.80;;;;;;5046219;28;20037;-77
2022/11/08 08:03:05;;;;;;;11.68;2.92;;;14.70;84.80;;;;;;5046976;28;20032;-80
2022/11/08 08:05:34;;;;;;;11.65;3.03;;;14.70;84.70;;;;;;5028999;28;20377;-75
2022/11/08 08:08:01;;;;;;;17.20;4.60;;;14.80;84.70;;;;;;5041124;28;20039;-76
2022/11/08 08:10:28;;;;;;;13.45;3.58;;;14.80;84.60;;;;;;5045094;28;20173;-75
2022/11/08 08:12:55;;;;;;;15.55;3.67;;;14.90;84.60;;;;;;5038534;28;20029;-76
2022/11/08 08:15:22;;;;;;;11.25;3.38;;;15.00;84.70;;;;;;5042554;28;20373;-79
2022/11/08 08:17:48;;;;;;;10.68;3.53;;;15.10;84.70;;;;;;5024787;28;20033;-79
2022/11/08 08:20:14;;;;;;;12.23;3.47;;;15.10;84.60;;;;;;5042367;28;20029;-79
2022/11/08 08:22:47;;;;;;;11.32;2.80;;;15.20;84.50;;;;;;5042732;28;20033;-81
2022/11/08 08:25:14;;;;;;;9.88;2.83;;;15.30;84.40;;;;;;5022676;28;20579;-82
2022/11/08 08:27:51;;;;;;;11.55;2.95;;;15.30;84.20;;;;;;5026153;28;20033;-81
2022/11/08 08:30:18;;;;;;;14.55;3.05;;;15.40;84.20;;;;;;5039980;28;20029;-81
2022/11/08 08:32:45;;;;;;;13.18;3.28;;;15.40;83.90;;;;;;5042564;28;20029;-79
2022/11/08 08:35:11;;;;;;;11.48;3.50;;;15.50;83.90;;;;;;5042677;28;20094;-79
2022/11/08 08:37:37;;;;;;;12.45;3.70;;;15.60;83.90;;;;;;5023177;28;20021;-79
2022/11/08 08:40:04;;;;;;;11.75;3.70;;;15.70;83.70;;;;;;5040530;28;20099;-80
2022/11/08 08:42:32;;;;;;;12.00;3.63;;;15.70;83.40;;;;;;5043512;28;20025;-78
2022/11/08 08:44:58;;;;;;;16.30;4.07;;;15.80;83.30;;;;;;5042710;28;20029;-78
2022/11/08 08:47:24;;;;;;;37.95;7.40;;;15.90;83.30;;;;;;5041738;28;20057;-78
2022/11/08 08:49:49;;;;;;;41.53;11.25;;;15.90;83.00;;;;;;5032191;28;20444;-80
2022/11/08 08:52:15;;;;;;;48.20;10.70;;;16.00;82.80;;;;;;5042021;28;20033;-78
2022/11/08 08:54:41;;;;;;;53.20;13.32;;;16.00;82.60;;;;;;5042625;28;20637;-77
2022/11/08 08:57:08;;;;;;;57.80;13.27;;;16.10;82.50;;;;;;5042154;28;20311;-77
2022/11/08 08:59:34;;;;;;;44.72;12.70;;;16.20;82.50;;;;;;5043004;28;20094;-76
2022/11/08 09:01:59;;;;;;;40.13;13.10;;;16.20;82.30;;;;;;5042981;28;20033;-81
2022/11/08 09:04:27;;;;;;;34.72;8.88;;;16.30;82.20;;;;;;5041880;28;20036;-85
2022/11/08 09:06:53;;;;;;;47.53;13.20;;;16.30;81.90;;;;;;5036344;28;20275;-88
2022/11/08 09:09:20;;;;;;;31.35;9.15;;;16.40;81.70;;;;;;5041966;28;20047;-82
2022/11/08 09:11:47;;;;;;;29.95;7.38;;;16.40;81.40;;;;;;5037658;28;20260;-85
2022/11/08 09:14:13;;;;;;;31.98;8.65;;;16.40;81.10;;;;;;5041020;28;20068;-82
2022/11/08 09:16:39;;;;;;;56.60;11.43;;;16.40;80.90;;;;;;5043016;28;20311;-82
2022/11/08 09:19:05;;;;;;;50.67;11.23;;;16.30;80.70;;;;;;5040622;28;20323;-82
2022/11/08 09:21:31;;;;;;;44.58;11.93;;;16.30;80.60;;;;;;5049679;28;20341;-89
2022/11/08 09:23:57;;;;;;;38.70;10.50;;;16.20;80.50;;;;;;5041827;28;20029;-83
2022/11/08 09:26:23;;;;;;;38.38;9.30;;;16.10;80.30;;;;;;5042229;28;20033;-87
2022/11/08 09:28:49;;;;;;;29.92;8.50;;;16.10;80.30;;;;;;5045851;28;20029;-89
2022/11/08 09:31:15;;;;;;;30.45;8.68;;;16.00;80.10;;;;;;5046415;28;20427;-88
2022/11/08 09:33:41;;;;;;;28.55;8.40;;;16.00;80.10;;;;;;5044552;28;20033;-88
2022/11/08 09:36:10;;;;;;;28.65;7.57;;;15.90;79.80;;;;;;5046187;28;20079;-88
2022/11/08 09:38:36;;;;;;;22.80;6.80;;;15.90;80.30;;;;;;5043370;28;20037;-90
2022/11/08 09:41:04;;;;;;;30.48;8.63;;;16.00;79.90;;;;;;5045841;28;20542;-88
2022/11/08 09:44:09;;;;;;;22.65;7.85;;;16.00;79.80;;;;;;5043968;28;20839;-93
2022/11/08 09:46:43;;;;;;;28.30;6.93;;;16.00;79.60;;;;;;5001952;28;20052;-91
2022/11/08 09:49:17;;;;;;;29.58;6.40;;;16.10;79.60;;;;;;5047897;28;20037;-87
2022/11/08 09:51:43;;;;;;;20.75;5.57;;;16.20;79.40;;;;;;5045676;28;20296;-85
2022/11/08 09:54:21;;;;;;;22.50;6.90;;;16.30;79.20;;;;;;5036428;28;20264;-87
2022/11/08 09:56:47;;;;;;;20.42;5.18;;;16.40;79.00;;;;;;5046148;28;20032;-84
2022/11/08 09:59:19;;;;;;;23.20;5.43;;;16.40;78.70;;;;;;5043993;28;20059;-85
2022/11/08 10:01:47;;;;;;;29.27;8.33;;;16.50;78.70;;;;;;5043606;28;20025;-82
2022/11/08 10:04:34;;;;;;;16.85;4.85;;;16.40;78.40;;;;;;5046265;28;20044;-82
2022/11/08 10:07:54;;;;;;;21.52;7.00;;;16.40;78.40;;;;;;5040595;28;20048;-83
2022/11/08 10:10:57;;;;;;;19.60;5.30;;;16.40;78.40;;;;;;5035710;28;20124;-84
2022/11/08 10:14:19;;;;;;;15.52;4.78;;;16.30;78.30;;;;;;5045522;28;20465;-84
2022/11/08 10:17:24;;;;;;;18.08;4.90;;;16.20;78.70;;;;;;5049611;28;20432;-83
2022/11/08 10:20:12;;;;;;;18.92;5.22;;;16.10;78.20;;;;;;5042936;28;20084;-82
2022/11/08 10:23:05;;;;;;;10.70;3.88;;;16.10;78.20;;;;;;5040999;28;20072;-89
2022/11/08 10:25:53;;;;;;;15.38;3.63;;;16.20;78.10;;;;;;5032674;28;20068;-91
2022/11/08 10:28:48;;;;;;;12.45;3.25;;;16.30;77.90;;;;;;5045593;28;20090;-84
2022/11/08 10:31:36;;;;;;;11.40;3.70;;;16.40;77.70;;;;;;5040062;28;20539;-89
2022/11/08 10:34:27;;;;;;;8.90;3.33;;;16.40;77.40;;;;;;5045243;28;20075;-87
2022/11/08 10:37:15;;;;;;;13.27;3.13;;;16.40;77.70;;;;;;5040505;28;20202;-85
2022/11/08 10:40:12;;;;;;;7.70;2.75;;;16.40;77.00;;;;;;5043557;28;20060;-85
2022/11/08 10:43:04;;;;;;;9.20;3.05;;;16.50;76.90;;;;;;5045532;28;20043;-80
2022/11/08 10:45:49;;;;;;;7.40;2.70;;;16.50;76.80;;;;;;5044998;28;20047;-83
2022/11/08 10:48:38;;;;;;;6.05;2.55;;;16.40;76.60;;;;;;5032345;28;20043;-84
2022/11/08 10:51:23;;;;;;;8.93;2.08;;;16.40;76.40;;;;;;5040561;28;20037;-84
2022/11/08 10:54:07;;;;;;;14.48;3.08;;;16.40;76.40;;;;;;5039204;28;20090;-85
2022/11/08 10:56:57;;;;;;;14.35;3.38;;;16.40;76.40;;;;;;5044880;28;20047;-84
2022/11/08 10:59:42;;;;;;;7.63;2.45;;;16.30;76.20;;;;;;5038583;28;20055;-84
2022/11/08 11:02:32;;;;;;;9.27;3.17;;;16.30;76.10;;;;;;5045263;28;20537;-81
2022/11/08 11:05:17;;;;;;;7.65;1.95;;;16.30;76.10;;;;;;5034546;28;20044;-81
2022/11/08 11:08:14;;;;;;;9.48;2.67;;;16.20;75.80;;;;;;5042720;28;20037;-82
2022/11/08 11:11:21;;;;;;;7.82;1.83;;;16.30;75.80;;;;;;5040521;28;20055;-82
2022/11/08 11:14:14;;;;;;;11.38;2.60;;;16.30;75.60;;;;;;5041037;28;20479;-87
2022/11/08 11:17:07;;;;;;;14.20;3.17;;;16.20;75.40;;;;;;5046162;28;20051;-86
2022/11/08 11:19:54;;;;;;;10.80;2.25;;;16.20;75.50;;;;;;5046505;28;20194;-94
2022/11/08 11:22:44;;;;;;;5.88;1.75;;;16.20;75.40;;;;;;5043565;28;20083;-94
2022/11/08 11:25:28;;;;;;;8.25;3.28;;;16.20;75.40;;;;;;5044793;28;20052;-92
2022/11/08 11:28:13;;;;;;;7.43;2.42;;;16.10;75.20;;;;;;5046499;28;20060;-92
2022/11/08 11:31:13;;;;;;;9.30;1.70;;;16.10;75.20;;;;;;5045846;28;20325;-94
2022/11/08 11:34:17;;;;;;;6.00;1.60;;;16.10;75.20;;;;;;5046597;28;20052;-94
2022/11/08 11:37:07;;;;;;;7.85;1.77;;;16.10;75.10;;;;;;5049683;28;20104;-92
2022/11/08 11:40:33;;;;;;;11.68;2.20;;;16.20;75.10;;;;;;5042867;28;20160;-92
2022/11/08 11:43:28;;;;;;;6.45;1.98;;;16.30;75.00;;;;;;5052519;28;20438;-91
2022/11/08 11:46:37;;;;;;;5.93;1.55;;;16.40;74.90;;;;;;5046800;28;20132;-93
2022/11/08 11:49:23;;;;;;;4.28;1.42;;;16.50;74.70;;;;;;5044326;28;20128;-89
2022/11/08 11:52:17;;;;;;;4.43;1.30;;;16.60;74.70;;;;;;5046080;28;20090;-94
2022/11/08 11:55:02;;;;;;;5.60;2.10;;;16.80;74.70;;;;;;5035928;28;20553;-90
2022/11/08 11:58:16;;;;;;;6.93;2.00;;;16.90;74.60;;;;;;5047413;28;20051;-90
2022/11/08 12:01:28;;;;;;;9.57;2.67;;;16.90;74.40;;;;;;5045420;28;20035;-90
2022/11/08 12:04:35;;;;;;;6.65;2.47;;;17.00;74.50;;;;;;5050854;28;20082;-96
2022/11/08 12:07:28;;;;;;;9.65;2.03;;;17.10;74.30;;;;;;5042533;28;20098;-94
2022/11/08 12:10:29;;;;;;;6.95;1.80;;;17.20;74.30;;;;;;5042049;28;20055;-89
2022/11/08 12:13:25;;;;;;;9.18;2.92;;;17.20;74.00;;;;;;5035526;28;20043;-84
2022/11/08 12:16:23;;;;;;;6.38;2.05;;;17.20;73.80;;;;;;5034882;28;20102;-88
2022/11/08 12:19:31;;;;;;;9.00;1.98;;;17.20;73.70;;;;;;5044876;28;20549;-89
2022/11/08 12:22:25;;;;;;;8.75;2.55;;;17.20;73.70;;;;;;5036451;28;20045;-88
2022/11/08 12:25:27;;;;;;;10.75;3.50;;;17.10;73.60;;;;;;5041227;28;20504;-89
2022/11/08 12:28:33;;;;;;;10.82;2.67;;;17.10;73.50;;;;;;5037468;28;20106;-88
2022/11/08 12:31:28;;;;;;;7.22;2.13;;;17.10;73.50;;;;;;5036735;28;20579;-89
2022/11/08 12:34:15;;;;;;;5.63;2.25;;;17.10;73.50;;;;;;5034991;28;20785;-85
2022/11/08 12:38:03;;;;;;;7.25;1.95;;;17.10;73.50;;;;;;5045007;28;20136;-91
2022/11/08 12:40:53;;;;;;;9.07;2.78;;;17.10;73.30;;;;;;4969266;28;20268;-89
2022/11/08 12:43:44;;;;;;;6.85;2.00;;;17.20;73.40;;;;;;4990544;28;20045;-88
2022/11/08 12:46:36;;;;;;;7.13;1.88;;;17.20;73.30;;;;;;5031098;28;20099;-89
2022/11/08 12:50:05;;;;;;;4.93;1.90;;;17.30;73.20;;;;;;5042264;28;20040;-88
2022/11/08 12:53:17;;;;;;;7.22;2.60;;;17.40;73.10;;;;;;5044790;28;20396;-88
2022/11/08 12:56:04;;;;;;;11.50;2.53;;;17.50;73.10;;;;;;5050296;28;20052;-90
2022/11/08 12:58:51;;;;;;;5.95;1.88;;;17.50;72.90;;;;;;5053901;28;20059;-90
2022/11/08 13:01:36;;;;;;;7.57;1.83;;;17.60;72.90;;;;;;5062040;28;20040;-89
2022/11/08 13:04:28;;;;;;;8.77;2.35;;;17.60;72.70;;;;;;5066286;28;20043;-91
2022/11/08 13:07:36;;;;;;;7.40;2.22;;;17.70;72.40;;;;;;5058227;28;20172;-90
2022/11/08 13:10:51;;;;;;;8.02;2.63;;;17.80;72.10;;;;;;5075239;28;20031;-82
2022/11/08 13:13:57;;;;;;;7.53;2.00;;;17.80;71.80;;;;;;5050403;28;20053;-89
2022/11/08 13:16:46;;;;;;;5.18;1.42;;;17.80;71.80;;;;;;5050037;28;20566;-94
2022/11/08 13:19:45;;;;;;;7.18;1.80;;;17.90;71.70;;;;;;5045566;28;20388;-83
2022/11/08 13:22:30;;;;;;;5.88;1.60;;;18.00;71.40;;;;;;5048797;28;20437;-91
2022/11/08 13:25:17;;;;;;;6.38;1.60;;;18.10;71.50;;;;;;5044406;28;20347;-88
2022/11/08 13:28:41;;;;;;;7.38;2.08;;;18.10;71.20;;;;;;5046771;28;20087;-83
2022/11/08 13:31:40;;;;;;;6.22;2.10;;;18.10;70.70;;;;;;5041094;28;20048;-89
2022/11/08 13:34:50;;;;;;;7.03;1.77;;;18.20;70.80;;;;;;5038656;28;20043;-87
2022/11/08 13:37:49;;;;;;;6.07;1.38;;;18.20;70.50;;;;;;5034648;28;20059;-86
2022/11/08 13:40:43;;;;;;;6.40;1.70;;;18.30;70.60;;;;;;5044961;28;20114;-93